ADDS METAR Data INFO
IDs: Format: Raw Decoded Include TAF

Data at: 2251 UTC 22 Jun 2018

KRYN 222245Z 26010G16KT 10SM CLR 41/M03 A2981
KRYN 222145Z 26010G16KT 10SM CLR 41/M05 A2984
KRYN 222045Z 3301G15KT 10SM CLR 39/04 A2986
KRYN 221945Z 01005KT 10SM CLR 38/01 A2989
KRYN 221845Z 326004KT 10SM CLR 37/01 A2992
KRYN 221745Z 35003KT 10SM CLR 36/01 A2993
KRYN 221545Z 20003KT 10SM CLR 31/07 A2995
KRYN 221445Z 00000KT 10SM CLR 27/08 A2995
KRYN 221345Z 00000KT 10SM CLR 24/08 A2993
KRYN 221245Z 00000KT 10SM CLR 21/08 A2992
KRYN 220245Z 34005KT 10SM CLR 36/00 A2987 RMK LAST
KRYN 220145Z 33011KT 10SM CLR 38/00 A2986
KRYN 220045Z 31011G16KT 10SM CLR 39/00 A2986
KRYN 212350Z 31011G16KT 10SM CLR 40/00 A2987
KRYN 212245Z 33010KT 10SM CLR 39/01 A2988
KRYN 212145Z 33010KT 10SM CLR 39/00 A2991
KRYN 212045Z 31006KT 10SM CLR 38/01 A2994
KRYN 211945Z 27006KT 10SM CLR 38/01 A2996
KRYN 211845Z 27005KT 10SM CLR 36/04 A2998
KRYN 211745Z 30004KT 10SM CLR 34/04 A2999
KRYN 211645Z 00000KT 10SM CLR 33/04 A3000
KRYN 211545Z 08003KT 10SM CLR 31/05 A3000
KRYN 211445Z 00000KT 10SM CLR 28/07 A3001
KRYN 211345Z 00000KT 10SM CLR 22/09 A3000
KRYN 211245Z 19006KT 10SM CLR 22/07 A3000